sensor_id;sensor_type;location;lat;lon;timestamp;P1;durP1;ratioP1;P2;durP2;ratioP2
16314;SDS011;8266;52.150;4.768;2022-09-28T00:02:10;2.38;;;0.60;;
16314;SDS011;8266;52.150;4.768;2022-09-28T00:04:37;1.63;;;0.45;;
16314;SDS011;8266;52.150;4.768;2022-09-28T00:07:04;2.15;;;0.50;;
16314;SDS011;8266;52.150;4.768;2022-09-28T00:09:30;0.95;;;0.65;;
16314;SDS011;8266;52.150;4.768;2022-09-28T00:11:57;0.60;;;0.32;;
16314;SDS011;8266;52.150;4.768;2022-09-28T00:14:28;1.45;;;0.50;;
16314;SDS011;8266;52.150;4.768;2022-09-28T00:16:56;2.38;;;0.60;;
16314;SDS011;8266;52.150;4.768;2022-09-28T00:19:23;1.98;;;0.43;;
16314;SDS011;8266;52.150;4.768;2022-09-28T00:21:50;1.92;;;0.40;;
16314;SDS011;8266;52.150;4.768;2022-09-28T00:24:17;0.73;;;0.57;;
16314;SDS011;8266;52.150;4.768;2022-09-28T00:26:45;1.25;;;0.55;;
16314;SDS011;8266;52.150;4.768;2022-09-28T00:29:15;1.00;;;0.70;;
16314;SDS011;8266;52.150;4.768;2022-09-28T00:31:46;1.60;;;0.63;;
16314;SDS011;8266;52.150;4.768;2022-09-28T00:34:14;1.23;;;0.40;;
16314;SDS011;8266;52.150;4.768;2022-09-28T00:36:42;0.95;;;0.40;;
16314;SDS011;8266;52.150;4.768;2022-09-28T00:39:11;1.83;;;0.43;;
16314;SDS011;8266;52.150;4.768;2022-09-28T00:41:39;1.83;;;0.47;;
16314;SDS011;8266;52.150;4.768;2022-09-28T00:47:05;0.40;;;0.40;;
16314;SDS011;8266;52.150;4.768;2022-09-28T00:49:46;3.00;;;0.50;;
16314;SDS011;8266;52.150;4.768;2022-09-28T00:52:17;0.60;;;0.50;;
16314;SDS011;8266;52.150;4.768;2022-09-28T00:54:49;1.13;;;0.63;;
16314;SDS011;8266;52.150;4.768;2022-09-28T00:57:18;1.98;;;0.55;;
16314;SDS011;8266;52.150;4.768;2022-09-28T00:59:47;1.70;;;0.70;;
16314;SDS011;8266;52.150;4.768;2022-09-28T01:02:16;0.60;;;0.57;;
16314;SDS011;8266;52.150;4.768;2022-09-28T01:04:44;2.35;;;0.63;;
16314;SDS011;8266;52.150;4.768;2022-09-28T01:07:11;1.55;;;0.82;;
16314;SDS011;8266;52.150;4.768;2022-09-28T01:09:38;1.00;;;0.65;;
16314;SDS011;8266;52.150;4.768;2022-09-28T01:12:08;0.43;;;0.43;;
16314;SDS011;8266;52.150;4.768;2022-09-28T01:14:36;0.93;;;0.52;;
16314;SDS011;8266;52.150;4.768;2022-09-28T01:17:06;0.95;;;0.50;;
16314;SDS011;8266;52.150;4.768;2022-09-28T01:22:37;0.60;;;0.43;;
16314;SDS011;8266;52.150;4.768;2022-09-28T01:25:38;1.35;;;0.40;;
16314;SDS011;8266;52.150;4.768;2022-09-28T01:28:12;0.20;;;0.20;;
16314;SDS011;8266;52.150;4.768;2022-09-28T01:30:42;1.50;;;0.20;;
16314;SDS011;8266;52.150;4.768;2022-09-28T01:33:16;0.10;;;0.10;;
16314;SDS011;8266;52.150;4.768;2022-09-28T01:35:48;1.77;;;0.30;;
16314;SDS011;8266;52.150;4.768;2022-09-28T01:38:20;0.57;;;0.30;;
16314;SDS011;8266;52.150;4.768;2022-09-28T01:40:50;1.17;;;0.38;;
16314;SDS011;8266;52.150;4.768;2022-09-28T01:43:21;0.70;;;0.35;;
16314;SDS011;8266;52.150;4.768;2022-09-28T01:45:51;0.45;;;0.17;;
16314;SDS011;8266;52.150;4.768;2022-09-28T01:48:22;0.50;;;0.20;;
16314;SDS011;8266;52.150;4.768;2022-09-28T01:50:53;0.32;;;0.20;;
16314;SDS011;8266;52.150;4.768;2022-09-28T01:53:24;0.20;;;0.20;;
16314;SDS011;8266;52.150;4.768;2022-09-28T01:55:58;0.28;;;0.10;;
16314;SDS011;8266;52.150;4.768;2022-09-28T01:58:31;0.50;;;0.20;;
16314;SDS011;8266;52.150;4.768;2022-09-28T02:01:04;0.38;;;0.30;;
16314;SDS011;8266;52.150;4.768;2022-09-28T02:03:35;0.75;;;0.30;;
16314;SDS011;8266;52.150;4.768;2022-09-28T02:06:07;0.47;;;0.20;;
16314;SDS011;8266;52.150;4.768;2022-09-28T02:08:39;0.47;;;0.20;;
16314;SDS011;8266;52.150;4.768;2022-09-28T02:11:13;0.85;;;0.22;;
16314;SDS011;8266;52.150;4.768;2022-09-28T02:13:43;0.85;;;0.20;;
16314;SDS011;8266;52.150;4.768;2022-09-28T02:16:15;1.85;;;0.40;;
16314;SDS011;8266;52.150;4.768;2022-09-28T02:18:46;0.28;;;0.20;;
16314;SDS011;8266;52.150;4.768;2022-09-28T02:21:14;0.85;;;0.28;;
16314;SDS011;8266;52.150;4.768;2022-09-28T02:23:49;1.63;;;0.20;;
16314;SDS011;8266;52.150;4.768;2022-09-28T02:26:30;0.95;;;0.30;;
16314;SDS011;8266;52.150;4.768;2022-09-28T02:29:01;0.25;;;0.10;;
16314;SDS011;8266;52.150;4.768;2022-09-28T02:31:29;0.20;;;0.20;;
16314;SDS011;8266;52.150;4.768;2022-09-28T02:33:56;0.43;;;0.20;;
16314;SDS011;8266;52.150;4.768;2022-09-28T02:36:24;0.82;;;0.30;;
16314;SDS011;8266;52.150;4.768;2022-09-28T02:38:52;0.40;;;0.10;;
16314;SDS011;8266;52.150;4.768;2022-09-28T02:41:25;0.70;;;0.20;;
16314;SDS011;8266;52.150;4.768;2022-09-28T02:44:02;0.55;;;0.20;;
16314;SDS011;8266;52.150;4.768;2022-09-28T02:46:39;0.68;;;0.20;;
16314;SDS011;8266;52.150;4.768;2022-09-28T02:49:14;1.25;;;0.30;;
16314;SDS011;8266;52.150;4.768;2022-09-28T02:51:57;0.38;;;0.10;;
16314;SDS011;8266;52.150;4.768;2022-09-28T02:54:44;0.32;;;0.20;;
16314;SDS011;8266;52.150;4.768;2022-09-28T02:57:27;0.32;;;0.30;;
16314;SDS011;8266;52.150;4.768;2022-09-28T03:00:05;1.27;;;0.30;;
16314;SDS011;8266;52.150;4.768;2022-09-28T03:02:38;0.35;;;0.20;;
16314;SDS011;8266;52.150;4.768;2022-09-28T03:05:12;1.42;;;0.25;;
16314;SDS011;8266;52.150;4.768;2022-09-28T03:07:45;0.00;;;0.00;;
16314;SDS011;8266;52.150;4.768;2022-09-28T03:10:21;0.30;;;0.10;;
16314;SDS011;8266;52.150;4.768;2022-09-28T03:12:53;0.38;;;0.20;;
16314;SDS011;8266;52.150;4.768;2022-09-28T03:15:26;2.00;;;0.28;;
16314;SDS011;8266;52.150;4.768;2022-09-28T03:17:54;1.60;;;0.10;;
16314;SDS011;8266;52.150;4.768;2022-09-28T03:20:21;0.60;;;0.20;;
16314;SDS011;8266;52.150;4.768;2022-09-28T03:22:48;0.30;;;0.20;;
16314;SDS011;8266;52.150;4.768;2022-09-28T03:25:16;0.55;;;0.15;;
16314;SDS011;8266;52.150;4.768;2022-09-28T03:27:43;0.20;;;0.10;;
16314;SDS011;8266;52.150;4.768;2022-09-28T03:30:10;0.30;;;0.20;;
16314;SDS011;8266;52.150;4.768;2022-09-28T03:32:39;0.32;;;0.20;;
16314;SDS011;8266;52.150;4.768;2022-09-28T03:35:06;1.20;;;0.22;;
16314;SDS011;8266;52.150;4.768;2022-09-28T03:37:34;1.45;;;0.20;;
16314;SDS011;8266;52.150;4.768;2022-09-28T03:40:01;0.55;;;0.17;;
16314;SDS011;8266;52.150;4.768;2022-09-28T03:42:29;0.17;;;0.15;;
16314;SDS011;8266;52.150;4.768;2022-09-28T03:44:56;0.50;;;0.20;;
16314;SDS011;8266;52.150;4.768;2022-09-28T03:47:23;0.98;;;0.30;;
16314;SDS011;8266;52.150;4.768;2022-09-28T03:49:51;0.13;;;0.13;;
16314;SDS011;8266;52.150;4.768;2022-09-28T03:52:18;0.15;;;0.15;;
16314;SDS011;8266;52.150;4.768;2022-09-28T03:54:45;0.10;;;0.10;;
16314;SDS011;8266;52.150;4.768;2022-09-28T03:57:12;0.20;;;0.15;;
16314;SDS011;8266;52.150;4.768;2022-09-28T03:59:38;0.43;;;0.28;;
16314;SDS011;8266;52.150;4.768;2022-09-28T04:02:05;0.13;;;0.13;;
16314;SDS011;8266;52.150;4.768;2022-09-28T04:04:33;0.57;;;0.30;;
16314;SDS011;8266;52.150;4.768;2022-09-28T04:07:01;0.20;;;0.20;;
16314;SDS011;8266;52.150;4.768;2022-09-28T04:09:28;0.85;;;0.20;;
16314;SDS011;8266;52.150;4.768;2022-09-28T04:11:55;0.60;;;0.13;;
16314;SDS011;8266;52.150;4.768;2022-09-28T04:14:27;1.08;;;0.20;;
16314;SDS011;8266;52.150;4.768;2022-09-28T04:16:54;0.52;;;0.30;;
16314;SDS011;8266;52.150;4.768;2022-09-28T04:19:20;0.47;;;0.10;;
16314;SDS011;8266;52.150;4.768;2022-09-28T04:21:47;0.10;;;0.10;;
16314;SDS011;8266;52.150;4.768;2022-09-28T04:24:17;0.25;;;0.20;;
16314;SDS011;8266;52.150;4.768;2022-09-28T04:26:45;0.50;;;0.25;;
16314;SDS011;8266;52.150;4.768;2022-09-28T04:29:13;0.40;;;0.22;;
16314;SDS011;8266;52.150;4.768;2022-09-28T04:31:43;0.22;;;0.20;;
16314;SDS011;8266;52.150;4.768;2022-09-28T04:34:11;0.20;;;0.20;;
16314;SDS011;8266;52.150;4.768;2022-09-28T04:36:39;0.20;;;0.10;;
16314;SDS011;8266;52.150;4.768;2022-09-28T04:39:06;0.10;;;0.10;;
16314;SDS011;8266;52.150;4.768;2022-09-28T04:41:34;0.38;;;0.20;;
16314;SDS011;8266;52.150;4.768;2022-09-28T04:44:01;0.52;;;0.20;;
16314;SDS011;8266;52.150;4.768;2022-09-28T04:46:29;0.70;;;0.30;;
16314;SDS011;8266;52.150;4.768;2022-09-28T04:48:56;0.80;;;0.40;;
16314;SDS011;8266;52.150;4.768;2022-09-28T04:51:23;0.30;;;0.10;;
16314;SDS011;8266;52.150;4.768;2022-09-28T04:53:50;0.43;;;0.30;;
16314;SDS011;8266;52.150;4.768;2022-09-28T04:56:17;0.28;;;0.20;;
16314;SDS011;8266;52.150;4.768;2022-09-28T04:58:46;0.20;;;0.20;;
16314;SDS011;8266;52.150;4.768;2022-09-28T05:01:14;0.40;;;0.30;;
16314;SDS011;8266;52.150;4.768;2022-09-28T05:03:42;0.30;;;0.10;;
16314;SDS011;8266;52.150;4.768;2022-09-28T05:06:11;1.10;;;0.30;;
16314;SDS011;8266;52.150;4.768;2022-09-28T05:08:40;0.30;;;0.30;;
16314;SDS011;8266;52.150;4.768;2022-09-28T05:11:09;0.82;;;0.25;;
16314;SDS011;8266;52.150;4.768;2022-09-28T05:13:41;0.63;;;0.30;;
16314;SDS011;8266;52.150;4.768;2022-09-28T05:16:11;0.75;;;0.35;;
16314;SDS011;8266;52.150;4.768;2022-09-28T05:18:40;1.40;;;0.30;;
16314;SDS011;8266;52.150;4.768;2022-09-28T05:21:10;0.57;;;0.20;;
16314;SDS011;8266;52.150;4.768;2022-09-28T05:23:38;0.28;;;0.20;;
16314;SDS011;8266;52.150;4.768;2022-09-28T05:26:08;0.32;;;0.22;;
16314;SDS011;8266;52.150;4.768;2022-09-28T05:28:35;0.45;;;0.30;;
16314;SDS011;8266;52.150;4.768;2022-09-28T05:31:03;0.70;;;0.30;;
16314;SDS011;8266;52.150;4.768;2022-09-28T05:33:31;0.82;;;0.22;;
16314;SDS011;8266;52.150;4.768;2022-09-28T05:35:59;1.42;;;0.65;;
16314;SDS011;8266;52.150;4.768;2022-09-28T05:38:26;0.85;;;0.35;;
16314;SDS011;8266;52.150;4.768;2022-09-28T05:40:54;0.68;;;0.40;;
16314;SDS011;8266;52.150;4.768;2022-09-28T05:43:21;0.30;;;0.30;;
16314;SDS011;8266;52.150;4.768;2022-09-28T05:45:50;0.90;;;0.20;;
16314;SDS011;8266;52.150;4.768;2022-09-28T05:48:17;1.80;;;0.47;;
16314;SDS011;8266;52.150;4.768;2022-09-28T05:50:50;0.65;;;0.40;;
16314;SDS011;8266;52.150;4.768;2022-09-28T05:53:19;1.98;;;0.40;;
16314;SDS011;8266;52.150;4.768;2022-09-28T05:55:46;0.30;;;0.30;;
16314;SDS011;8266;52.150;4.768;2022-09-28T05:58:13;1.92;;;0.43;;
16314;SDS011;8266;52.150;4.768;2022-09-28T06:00:40;1.00;;;0.40;;
16314;SDS011;8266;52.150;4.768;2022-09-28T06:03:10;0.60;;;0.40;;
16314;SDS011;8266;52.150;4.768;2022-09-28T06:05:38;0.90;;;0.45;;
16314;SDS011;8266;52.150;4.768;2022-09-28T06:08:07;0.55;;;0.40;;
16314;SDS011;8266;52.150;4.768;2022-09-28T06:10:35;1.98;;;0.43;;
16314;SDS011;8266;52.150;4.768;2022-09-28T06:13:05;1.75;;;0.40;;
16314;SDS011;8266;52.150;4.768;2022-09-28T06:15:33;0.85;;;0.43;;
16314;SDS011;8266;52.150;4.768;2022-09-28T06:18:03;1.35;;;0.43;;
16314;SDS011;8266;52.150;4.768;2022-09-28T06:20:31;0.40;;;0.30;;
16314;SDS011;8266;52.150;4.768;2022-09-28T06:23:00;2.08;;;0.60;;
16314;SDS011;8266;52.150;4.768;2022-09-28T06:25:29;0.68;;;0.30;;
16314;SDS011;8266;52.150;4.768;2022-09-28T06:27:56;0.80;;;0.50;;
16314;SDS011;8266;52.150;4.768;2022-09-28T06:30:24;2.67;;;0.68;;
16314;SDS011;8266;52.150;4.768;2022-09-28T06:32:53;1.60;;;0.55;;
16314;SDS011;8266;52.150;4.768;2022-09-28T06:35:21;0.85;;;0.50;;
16314;SDS011;8266;52.150;4.768;2022-09-28T06:37:49;0.50;;;0.30;;
16314;SDS011;8266;52.150;4.768;2022-09-28T06:40:16;0.70;;;0.50;;
16314;SDS011;8266;52.150;4.768;2022-09-28T06:42:45;0.75;;;0.50;;
16314;SDS011;8266;52.150;4.768;2022-09-28T06:45:20;0.77;;;0.60;;
16314;SDS011;8266;52.150;4.768;2022-09-28T06:47:51;1.45;;;0.55;;
16314;SDS011;8266;52.150;4.768;2022-09-28T06:50:18;0.73;;;0.40;;
16314;SDS011;8266;52.150;4.768;2022-09-28T06:52:48;1.13;;;0.50;;
16314;SDS011;8266;52.150;4.768;2022-09-28T06:55:16;1.95;;;0.60;;
16314;SDS011;8266;52.150;4.768;2022-09-28T06:57:44;1.92;;;0.60;;
16314;SDS011;8266;52.150;4.768;2022-09-28T07:00:12;1.77;;;0.60;;
16314;SDS011;8266;52.150;4.768;2022-09-28T07:02:40;1.10;;;0.50;;
16314;SDS011;8266;52.150;4.768;2022-09-28T07:05:08;2.88;;;0.47;;
16314;SDS011;8266;52.150;4.768;2022-09-28T07:07:37;0.65;;;0.40;;
16314;SDS011;8266;52.150;4.768;2022-09-28T07:10:07;0.55;;;0.50;;
16314;SDS011;8266;52.150;4.768;2022-09-28T07:12:35;0.85;;;0.30;;
16314;SDS011;8266;52.150;4.768;2022-09-28T07:15:04;0.35;;;0.30;;
16314;SDS011;8266;52.150;4.768;2022-09-28T07:17:33;0.55;;;0.38;;
16314;SDS011;8266;52.150;4.768;2022-09-28T07:20:00;0.30;;;0.30;;
16314;SDS011;8266;52.150;4.768;2022-09-28T07:22:28;0.30;;;0.30;;
16314;SDS011;8266;52.150;4.768;2022-09-28T07:24:55;0.73;;;0.40;;
16314;SDS011;8266;52.150;4.768;2022-09-28T07:27:22;0.88;;;0.32;;
16314;SDS011;8266;52.150;4.768;2022-09-28T07:29:49;0.40;;;0.30;;
16314;SDS011;8266;52.150;4.768;2022-09-28T07:32:19;1.33;;;0.30;;
16314;SDS011;8266;52.150;4.768;2022-09-28T07:34:46;3.15;;;0.30;;
16314;SDS011;8266;52.150;4.768;2022-09-28T07:37:13;0.90;;;0.25;;
16314;SDS011;8266;52.150;4.768;2022-09-28T07:39:42;0.43;;;0.20;;
16314;SDS011;8266;52.150;4.768;2022-09-28T07:42:27;0.20;;;0.20;;
16314;SDS011;8266;52.150;4.768;2022-09-28T07:44:54;0.20;;;0.20;;
16314;SDS011;8266;52.150;4.768;2022-09-28T07:47:23;0.93;;;0.20;;
16314;SDS011;8266;52.150;4.768;2022-09-28T07:49:52;0.65;;;0.20;;
16314;SDS011;8266;52.150;4.768;2022-09-28T07:52:20;0.93;;;0.20;;
16314;SDS011;8266;52.150;4.768;2022-09-28T07:54:50;0.40;;;0.13;;
16314;SDS011;8266;52.150;4.768;2022-09-28T07:57:17;0.55;;;0.25;;
16314;SDS011;8266;52.150;4.768;2022-09-28T07:59:44;0.80;;;0.30;;
16314;SDS011;8266;52.150;4.768;2022-09-28T08:02:11;0.20;;;0.10;;
16314;SDS011;8266;52.150;4.768;2022-09-28T08:04:40;0.32;;;0.20;;
16314;SDS011;8266;52.150;4.768;2022-09-28T08:07:07;0.60;;;0.20;;
16314;SDS011;8266;52.150;4.768;2022-09-28T08:09:35;0.40;;;0.25;;
16314;SDS011;8266;52.150;4.768;2022-09-28T08:12:02;0.40;;;0.08;;
16314;SDS011;8266;52.150;4.768;2022-09-28T08:14:30;0.40;;;0.20;;
16314;SDS011;8266;52.150;4.768;2022-09-28T08:16:58;1.05;;;0.30;;
16314;SDS011;8266;52.150;4.768;2022-09-28T08:19:25;0.35;;;0.10;;
16314;SDS011;8266;52.150;4.768;2022-09-28T08:22:16;0.73;;;0.30;;
16314;SDS011;8266;52.150;4.768;2022-09-28T08:24:43;0.43;;;0.30;;
16314;SDS011;8266;52.150;4.768;2022-09-28T08:27:10;1.17;;;0.30;;
16314;SDS011;8266;52.150;4.768;2022-09-28T08:29:37;0.70;;;0.30;;
16314;SDS011;8266;52.150;4.768;2022-09-28T08:32:05;1.42;;;0.30;;
16314;SDS011;8266;52.150;4.768;2022-09-28T08:34:33;1.08;;;0.20;;
16314;SDS011;8266;52.150;4.768;2022-09-28T08:37:00;0.40;;;0.20;;
16314;SDS011;8266;52.150;4.768;2022-09-28T08:39:29;1.67;;;0.20;;
16314;SDS011;8266;52.150;4.768;2022-09-28T08:42:01;0.30;;;0.17;;
16314;SDS011;8266;52.150;4.768;2022-09-28T08:44:41;0.15;;;0.10;;
16314;SDS011;8266;52.150;4.768;2022-09-28T08:47:12;0.50;;;0.20;;
16314;SDS011;8266;52.150;4.768;2022-09-28T08:49:56;0.47;;;0.10;;
16314;SDS011;8266;52.150;4.768;2022-09-28T08:52:27;0.70;;;0.20;;
16314;SDS011;8266;52.150;4.768;2022-09-28T08:55:01;0.77;;;0.10;;
16314;SDS011;8266;52.150;4.768;2022-09-28T08:57:32;0.40;;;0.20;;
16314;SDS011;8266;52.150;4.768;2022-09-28T09:00:09;0.40;;;0.20;;
16314;SDS011;8266;52.150;4.768;2022-09-28T09:02:43;0.25;;;0.10;;
16314;SDS011;8266;52.150;4.768;2022-09-28T09:05:12;0.77;;;0.10;;
16314;SDS011;8266;52.150;4.768;2022-09-28T09:07:49;1.02;;;0.20;;
16314;SDS011;8266;52.150;4.768;2022-09-28T09:10:43;0.40;;;0.10;;
16314;SDS011;8266;52.150;4.768;2022-09-28T09:13:24;0.73;;;0.10;;
16314;SDS011;8266;52.150;4.768;2022-09-28T09:16:18;2.05;;;0.32;;
16314;SDS011;8266;52.150;4.768;2022-09-28T09:18:55;0.15;;;0.00;;
16314;SDS011;8266;52.150;4.768;2022-09-28T09:21:38;0.30;;;0.08;;
16314;SDS011;8266;52.150;4.768;2022-09-28T09:24:14;0.10;;;0.03;;
16314;SDS011;8266;52.150;4.768;2022-09-28T09:26:54;0.52;;;0.20;;
16314;SDS011;8266;52.150;4.768;2022-09-28T09:29:31;0.08;;;0.00;;
16314;SDS011;8266;52.150;4.768;2022-09-28T09:32:25;1.55;;;0.10;;
16314;SDS011;8266;52.150;4.768;2022-09-28T09:35:24;0.82;;;0.10;;
16314;SDS011;8266;52.150;4.768;2022-09-28T09:38:18;0.10;;;0.00;;
16314;SDS011;8266;52.150;4.768;2022-09-28T09:41:03;0.22;;;0.10;;
16314;SDS011;8266;52.150;4.768;2022-09-28T09:46:35;0.40;;;0.10;;
16314;SDS011;8266;52.150;4.768;2022-09-28T09:49:05;0.93;;;0.10;;
16314;SDS011;8266;52.150;4.768;2022-09-28T09:51:40;0.28;;;0.15;;
16314;SDS011;8266;52.150;4.768;2022-09-28T09:54:13;0.30;;;0.10;;
16314;SDS011;8266;52.150;4.768;2022-09-28T09:56:48;0.10;;;0.10;;
16314;SDS011;8266;52.150;4.768;2022-09-28T09:59:20;0.88;;;0.30;;
16314;SDS011;8266;52.150;4.768;2022-09-28T10:01:50;0.65;;;0.30;;
16314;SDS011;8266;52.150;4.768;2022-09-28T10:04:20;0.75;;;0.28;;
16314;SDS011;8266;52.150;4.768;2022-09-28T10:06:50;0.10;;;0.10;;
16314;SDS011;8266;52.150;4.768;2022-09-28T10:09:23;1.00;;;0.30;;
16314;SDS011;8266;52.150;4.768;2022-09-28T10:11:53;0.47;;;0.28;;
16314;SDS011;8266;52.150;4.768;2022-09-28T10:14:24;1.13;;;0.20;;
16314;SDS011;8266;52.150;4.768;2022-09-28T10:16:51;0.60;;;0.20;;
16314;SDS011;8266;52.150;4.768;2022-09-28T10:19:23;0.73;;;0.28;;
16314;SDS011;8266;52.150;4.768;2022-09-28T10:21:55;0.88;;;0.10;;
16314;SDS011;8266;52.150;4.768;2022-09-28T10:24:27;0.30;;;0.10;;
16314;SDS011;8266;52.150;4.768;2022-09-28T10:26:58;0.60;;;0.20;;
16314;SDS011;8266;52.150;4.768;2022-09-28T10:29:38;0.47;;;0.25;;
16314;SDS011;8266;52.150;4.768;2022-09-28T10:32:20;2.88;;;0.85;;
16314;SDS011;8266;52.150;4.768;2022-09-28T10:34:49;0.03;;;0.03;;
16314;SDS011;8266;52.150;4.768;2022-09-28T10:37:17;0.38;;;0.17;;
16314;SDS011;8266;52.150;4.768;2022-09-28T10:39:45;0.25;;;0.10;;
16314;SDS011;8266;52.150;4.768;2022-09-28T10:42:19;0.13;;;0.10;;
16314;SDS011;8266;52.150;4.768;2022-09-28T10:44:54;0.05;;;0.00;;
16314;SDS011;8266;52.150;4.768;2022-09-28T10:47:25;0.52;;;0.32;;
16314;SDS011;8266;52.150;4.768;2022-09-28T10:49:54;0.35;;;0.10;;
16314;SDS011;8266;52.150;4.768;2022-09-28T10:52:29;0.05;;;0.03;;
16314;SDS011;8266;52.150;4.768;2022-09-28T10:57:53;0.35;;;0.20;;
16314;SDS011;8266;52.150;4.768;2022-09-28T11:00:32;0.80;;;0.10;;
16314;SDS011;8266;52.150;4.768;2022-09-28T11:03:02;1.70;;;0.20;;
16314;SDS011;8266;52.150;4.768;2022-09-28T11:05:30;0.10;;;0.00;;
16314;SDS011;8266;52.150;4.768;2022-09-28T11:07:58;1.05;;;0.20;;
16314;SDS011;8266;52.150;4.768;2022-09-28T11:10:30;0.98;;;0.10;;
16314;SDS011;8266;52.150;4.768;2022-09-28T11:12:57;0.15;;;0.10;;
16314;SDS011;8266;52.150;4.768;2022-09-28T11:15:26;0.10;;;0.00;;
16314;SDS011;8266;52.150;4.768;2022-09-28T11:17:56;1.33;;;0.08;;
16314;SDS011;8266;52.150;4.768;2022-09-28T11:20:45;0.00;;;0.00;;
16314;SDS011;8266;52.150;4.768;2022-09-28T11:23:18;0.52;;;0.10;;
16314;SDS011;8266;52.150;4.768;2022-09-28T11:25:56;0.08;;;0.00;;
16314;SDS011;8266;52.150;4.768;2022-09-28T11:28:28;0.30;;;0.00;;
16314;SDS011;8266;52.150;4.768;2022-09-28T11:30:57;0.10;;;0.00;;
16314;SDS011;8266;52.150;4.768;2022-09-28T11:33:27;0.13;;;0.05;;
16314;SDS011;8266;52.150;4.768;2022-09-28T11:36:00;0.00;;;0.00;;
16314;SDS011;8266;52.150;4.768;2022-09-28T11:38:49;0.20;;;0.10;;
16314;SDS011;8266;52.150;4.768;2022-09-28T11:41:27;0.13;;;0.10;;
16314;SDS011;8266;52.150;4.768;2022-09-28T11:44:17;1.17;;;0.03;;
16314;SDS011;8266;52.150;4.768;2022-09-28T11:46:59;0.38;;;0.13;;
16314;SDS011;8266;52.150;4.768;2022-09-28T11:49:35;1.10;;;0.10;;
16314;SDS011;8266;52.150;4.768;2022-09-28T11:52:09;0.10;;;0.10;;
16314;SDS011;8266;52.150;4.768;2022-09-28T11:54:43;0.40;;;0.20;;
16314;SDS011;8266;52.150;4.768;2022-09-28T11:57:16;0.20;;;0.10;;
16314;SDS011;8266;52.150;4.768;2022-09-28T11:59:50;0.93;;;0.20;;
16314;SDS011;8266;52.150;4.768;2022-09-28T12:02:23;1.30;;;0.20;;
16314;SDS011;8266;52.150;4.768;2022-09-28T12:04:57;1.67;;;0.20;;
16314;SDS011;8266;52.150;4.768;2022-09-28T12:07:33;0.98;;;0.30;;
16314;SDS011;8266;52.150;4.768;2022-09-28T12:10:07;1.10;;;0.20;;
16314;SDS011;8266;52.150;4.768;2022-09-28T12:12:41;1.67;;;0.20;;
16314;SDS011;8266;52.150;4.768;2022-09-28T12:15:13;0.65;;;0.10;;
16314;SDS011;8266;52.150;4.768;2022-09-28T12:17:47;0.43;;;0.30;;
16314;SDS011;8266;52.150;4.768;2022-09-28T12:20:20;0.32;;;0.10;;
16314;SDS011;8266;52.150;4.768;2022-09-28T12:22:53;1.23;;;0.20;;
16314;SDS011;8266;52.150;4.768;2022-09-28T12:25:28;0.85;;;0.20;;
16314;SDS011;8266;52.150;4.768;2022-09-28T12:28:03;1.02;;;0.10;;
16314;SDS011;8266;52.150;4.768;2022-09-28T12:30:33;0.82;;;0.10;;
16314;SDS011;8266;52.150;4.768;2022-09-28T12:33:05;0.10;;;0.03;;
16314;SDS011;8266;52.150;4.768;2022-09-28T12:35:43;0.00;;;0.00;;
16314;SDS011;8266;52.150;4.768;2022-09-28T12:38:29;0.80;;;0.03;;
16314;SDS011;8266;52.150;4.768;2022-09-28T12:41:07;0.10;;;0.10;;
16314;SDS011;8266;52.150;4.768;2022-09-28T12:43:48;0.10;;;0.10;;
16314;SDS011;8266;52.150;4.768;2022-09-28T12:47:11;0.22;;;0.10;;
16314;SDS011;8266;52.150;4.768;2022-09-28T12:49:53;0.10;;;0.10;;
16314;SDS011;8266;52.150;4.768;2022-09-28T12:52:30;0.60;;;0.10;;
16314;SDS011;8266;52.150;4.768;2022-09-28T12:57:57;0.20;;;0.10;;
16314;SDS011;8266;52.150;4.768;2022-09-28T13:00:31;1.17;;;0.10;;
16314;SDS011;8266;52.150;4.768;2022-09-28T13:03:15;0.15;;;0.00;;
16314;SDS011;8266;52.150;4.768;2022-09-28T13:06:12;0.20;;;0.15;;
16314;SDS011;8266;52.150;4.768;2022-09-28T13:08:55;0.65;;;0.10;;
16314;SDS011;8266;52.150;4.768;2022-09-28T13:11:42;0.20;;;0.10;;
16314;SDS011;8266;52.150;4.768;2022-09-28T13:17:35;0.20;;;0.10;;
16314;SDS011;8266;52.150;4.768;2022-09-28T13:20:15;0.00;;;0.00;;
16314;SDS011;8266;52.150;4.768;2022-09-28T13:23:02;0.03;;;0.03;;
16314;SDS011;8266;52.150;4.768;2022-09-28T13:25:43;0.63;;;0.10;;
16314;SDS011;8266;52.150;4.768;2022-09-28T13:28:13;0.00;;;0.00;;
16314;SDS011;8266;52.150;4.768;2022-09-28T13:30:42;0.22;;;0.05;;
16314;SDS011;8266;52.150;4.768;2022-09-28T13:33:13;0.80;;;0.10;;
16314;SDS011;8266;52.150;4.768;2022-09-28T13:35:47;0.35;;;0.20;;
16314;SDS011;8266;52.150;4.768;2022-09-28T13:38:29;0.10;;;0.03;;
16314;SDS011;8266;52.150;4.768;2022-09-28T13:41:19;1.27;;;0.22;;
16314;SDS011;8266;52.150;4.768;2022-09-28T13:44:09;0.45;;;0.30;;
16314;SDS011;8266;52.150;4.768;2022-09-28T13:50:01;0.93;;;0.30;;
16314;SDS011;8266;52.150;4.768;2022-09-28T13:52:43;0.30;;;0.17;;
16314;SDS011;8266;52.150;4.768;2022-09-28T13:55:20;1.27;;;0.22;;
16314;SDS011;8266;52.150;4.768;2022-09-28T13:57:53;0.52;;;0.22;;
16314;SDS011;8266;52.150;4.768;2022-09-28T14:00:24;0.98;;;0.20;;
16314;SDS011;8266;52.150;4.768;2022-09-28T14:02:56;0.60;;;0.30;;
16314;SDS011;8266;52.150;4.768;2022-09-28T14:08:36;0.90;;;0.57;;
16314;SDS011;8266;52.150;4.768;2022-09-28T14:20:15;0.52;;;0.25;;
16314;SDS011;8266;52.150;4.768;2022-09-28T14:22:51;1.17;;;0.40;;
16314;SDS011;8266;52.150;4.768;2022-09-28T14:25:40;0.68;;;0.38;;
16314;SDS011;8266;52.150;4.768;2022-09-28T14:28:22;0.40;;;0.10;;
16314;SDS011;8266;52.150;4.768;2022-09-28T14:31:05;0.38;;;0.20;;
16314;SDS011;8266;52.150;4.768;2022-09-28T14:33:34;0.77;;;0.20;;
16314;SDS011;8266;52.150;4.768;2022-09-28T14:36:05;0.50;;;0.30;;
16314;SDS011;8266;52.150;4.768;2022-09-28T14:39:01;0.82;;;0.38;;
16314;SDS011;8266;52.150;4.768;2022-09-28T14:41:46;0.40;;;0.30;;
16314;SDS011;8266;52.150;4.768;2022-09-28T14:44:13;1.17;;;0.43;;
16314;SDS011;8266;52.150;4.768;2022-09-28T14:46:41;1.02;;;0.45;;
16314;SDS011;8266;52.150;4.768;2022-09-28T14:52:34;0.73;;;0.47;;
16314;SDS011;8266;52.150;4.768;2022-09-28T14:55:10;0.85;;;0.20;;
16314;SDS011;8266;52.150;4.768;2022-09-28T14:57:41;2.75;;;0.30;;
16314;SDS011;8266;52.150;4.768;2022-09-28T15:00:13;0.40;;;0.20;;
16314;SDS011;8266;52.150;4.768;2022-09-28T15:02:46;0.65;;;0.30;;
16314;SDS011;8266;52.150;4.768;2022-09-28T15:05:17;0.50;;;0.30;;
16314;SDS011;8266;52.150;4.768;2022-09-28T15:07:49;1.00;;;0.45;;
16314;SDS011;8266;52.150;4.768;2022-09-28T15:10:21;0.80;;;0.30;;
16314;SDS011;8266;52.150;4.768;2022-09-28T15:12:59;1.13;;;0.28;;
16314;SDS011;8266;52.150;4.768;2022-09-28T15:15:30;0.88;;;0.30;;
16314;SDS011;8266;52.150;4.768;2022-09-28T15:18:02;0.80;;;0.10;;
16314;SDS011;8266;52.150;4.768;2022-09-28T15:20:38;0.40;;;0.13;;
16314;SDS011;8266;52.150;4.768;2022-09-28T15:23:22;1.67;;;0.40;;
16314;SDS011;8266;52.150;4.768;2022-09-28T15:25:52;1.35;;;0.20;;
16314;SDS011;8266;52.150;4.768;2022-09-28T15:28:20;0.90;;;0.20;;
16314;SDS011;8266;52.150;4.768;2022-09-28T15:30:49;0.20;;;0.20;;
16314;SDS011;8266;52.150;4.768;2022-09-28T15:33:22;0.20;;;0.13;;
16314;SDS011;8266;52.150;4.768;2022-09-28T15:36:08;0.82;;;0.20;;
16314;SDS011;8266;52.150;4.768;2022-09-28T15:38:40;1.10;;;0.28;;
16314;SDS011;8266;52.150;4.768;2022-09-28T15:41:08;2.22;;;0.55;;
16314;SDS011;8266;52.150;4.768;2022-09-28T15:43:35;0.38;;;0.20;;
16314;SDS011;8266;52.150;4.768;2022-09-28T15:46:03;0.52;;;0.28;;
16314;SDS011;8266;52.150;4.768;2022-09-28T15:48:32;1.60;;;0.40;;
16314;SDS011;8266;52.150;4.768;2022-09-28T15:51:06;0.80;;;0.30;;
16314;SDS011;8266;52.150;4.768;2022-09-28T15:53:38;0.45;;;0.28;;
16314;SDS011;8266;52.150;4.768;2022-09-28T15:56:12;1.45;;;0.47;;
16314;SDS011;8266;52.150;4.768;2022-09-28T15:58:42;0.93;;;0.38;;
16314;SDS011;8266;52.150;4.768;2022-09-28T16:01:30;1.48;;;0.52;;
16314;SDS011;8266;52.150;4.768;2022-09-28T16:07:11;0.90;;;0.15;;
16314;SDS011;8266;52.150;4.768;2022-09-28T16:13:21;0.50;;;0.25;;
16314;SDS011;8266;52.150;4.768;2022-09-28T16:15:52;0.40;;;0.30;;